sensor_id;sensor_type;location;lat;lon;timestamp;P1;durP1;ratioP1;P2;durP2;ratioP2
12886;SDS011;6511;49.746;6.094;2023-03-05T00:01:05;17.70;;;10.87;;
12886;SDS011;6511;49.746;6.094;2023-03-05T00:03:31;17.75;;;11.38;;
12886;SDS011;6511;49.746;6.094;2023-03-05T00:05:56;19.33;;;11.93;;
12886;SDS011;6511;49.746;6.094;2023-03-05T00:08:22;18.80;;;11.32;;
12886;SDS011;6511;49.746;6.094;2023-03-05T00:11:00;17.93;;;11.60;;
12886;SDS011;6511;49.746;6.094;2023-03-05T00:13:27;18.42;;;11.65;;
12886;SDS011;6511;49.746;6.094;2023-03-05T00:15:53;20.60;;;12.17;;
12886;SDS011;6511;49.746;6.094;2023-03-05T00:18:19;20.23;;;12.45;;
12886;SDS011;6511;49.746;6.094;2023-03-05T00:20:45;19.35;;;12.13;;
12886;SDS011;6511;49.746;6.094;2023-03-05T00:23:11;20.60;;;13.02;;
12886;SDS011;6511;49.746;6.094;2023-03-05T00:25:37;19.67;;;12.80;;
12886;SDS011;6511;49.746;6.094;2023-03-05T00:28:03;18.92;;;12.40;;
12886;SDS011;6511;49.746;6.094;2023-03-05T00:30:32;22.63;;;13.02;;
12886;SDS011;6511;49.746;6.094;2023-03-05T00:32:59;19.67;;;13.27;;
12886;SDS011;6511;49.746;6.094;2023-03-05T00:35:24;20.35;;;13.55;;
12886;SDS011;6511;49.746;6.094;2023-03-05T00:37:50;21.33;;;13.77;;
12886;SDS011;6511;49.746;6.094;2023-03-05T00:40:16;24.50;;;13.90;;
12886;SDS011;6511;49.746;6.094;2023-03-05T00:42:42;22.15;;;13.82;;
12886;SDS011;6511;49.746;6.094;2023-03-05T00:45:08;25.10;;;14.07;;
12886;SDS011;6511;49.746;6.094;2023-03-05T00:47:34;22.75;;;14.07;;
12886;SDS011;6511;49.746;6.094;2023-03-05T00:50:01;23.03;;;15.00;;
12886;SDS011;6511;49.746;6.094;2023-03-05T00:52:26;23.13;;;14.57;;
12886;SDS011;6511;49.746;6.094;2023-03-05T00:54:52;21.27;;;14.05;;
12886;SDS011;6511;49.746;6.094;2023-03-05T00:57:18;22.70;;;14.53;;
12886;SDS011;6511;49.746;6.094;2023-03-05T00:59:43;23.58;;;14.02;;
12886;SDS011;6511;49.746;6.094;2023-03-05T01:02:09;25.03;;;15.17;;
12886;SDS011;6511;49.746;6.094;2023-03-05T01:04:35;24.40;;;14.48;;
12886;SDS011;6511;49.746;6.094;2023-03-05T01:07:02;23.80;;;14.95;;
12886;SDS011;6511;49.746;6.094;2023-03-05T01:09:27;23.58;;;14.32;;
12886;SDS011;6511;49.746;6.094;2023-03-05T01:11:54;23.45;;;14.82;;
12886;SDS011;6511;49.746;6.094;2023-03-05T01:14:20;23.45;;;14.82;;
12886;SDS011;6511;49.746;6.094;2023-03-05T01:16:46;22.63;;;14.48;;
12886;SDS011;6511;49.746;6.094;2023-03-05T01:19:12;24.20;;;15.00;;
12886;SDS011;6511;49.746;6.094;2023-03-05T01:21:39;26.75;;;14.85;;
12886;SDS011;6511;49.746;6.094;2023-03-05T01:24:06;23.48;;;14.93;;
12886;SDS011;6511;49.746;6.094;2023-03-05T01:26:32;24.23;;;15.10;;
12886;SDS011;6511;49.746;6.094;2023-03-05T01:28:57;26.67;;;15.20;;
12886;SDS011;6511;49.746;6.094;2023-03-05T01:31:24;27.23;;;15.80;;
12886;SDS011;6511;49.746;6.094;2023-03-05T01:33:53;23.60;;;15.20;;
12886;SDS011;6511;49.746;6.094;2023-03-05T01:36:19;24.75;;;14.70;;
12886;SDS011;6511;49.746;6.094;2023-03-05T01:38:46;24.15;;;15.60;;
12886;SDS011;6511;49.746;6.094;2023-03-05T01:41:12;22.70;;;14.63;;
12886;SDS011;6511;49.746;6.094;2023-03-05T01:43:40;24.52;;;15.20;;
12886;SDS011;6511;49.746;6.094;2023-03-05T01:46:49;24.38;;;14.93;;
12886;SDS011;6511;49.746;6.094;2023-03-05T01:49:18;23.40;;;14.63;;
12886;SDS011;6511;49.746;6.094;2023-03-05T01:54:42;21.77;;;14.65;;
12886;SDS011;6511;49.746;6.094;2023-03-05T01:57:13;25.48;;;14.93;;
12886;SDS011;6511;49.746;6.094;2023-03-05T01:59:43;23.95;;;14.27;;
12886;SDS011;6511;49.746;6.094;2023-03-05T02:02:11;23.20;;;14.52;;
12886;SDS011;6511;49.746;6.094;2023-03-05T02:04:45;24.17;;;14.93;;
12886;SDS011;6511;49.746;6.094;2023-03-05T02:07:18;21.48;;;14.30;;
12886;SDS011;6511;49.746;6.094;2023-03-05T02:09:45;22.60;;;14.25;;
12886;SDS011;6511;49.746;6.094;2023-03-05T02:12:11;22.60;;;14.20;;
12886;SDS011;6511;49.746;6.094;2023-03-05T02:14:38;22.50;;;14.13;;
12886;SDS011;6511;49.746;6.094;2023-03-05T02:17:05;23.85;;;15.20;;
12886;SDS011;6511;49.746;6.094;2023-03-05T02:19:45;25.27;;;15.13;;
12886;SDS011;6511;49.746;6.094;2023-03-05T02:22:17;25.38;;;14.63;;
12886;SDS011;6511;49.746;6.094;2023-03-05T02:24:44;22.77;;;14.23;;
12886;SDS011;6511;49.746;6.094;2023-03-05T02:27:09;23.53;;;14.60;;
12886;SDS011;6511;49.746;6.094;2023-03-05T02:29:36;24.45;;;14.90;;
12886;SDS011;6511;49.746;6.094;2023-03-05T02:32:05;22.80;;;15.02;;
12886;SDS011;6511;49.746;6.094;2023-03-05T02:34:32;23.73;;;14.23;;
12886;SDS011;6511;49.746;6.094;2023-03-05T02:36:58;25.15;;;15.07;;
12886;SDS011;6511;49.746;6.094;2023-03-05T02:39:23;25.07;;;14.50;;
12886;SDS011;6511;49.746;6.094;2023-03-05T02:41:49;23.40;;;15.00;;
12886;SDS011;6511;49.746;6.094;2023-03-05T02:44:14;23.25;;;14.40;;
12886;SDS011;6511;49.746;6.094;2023-03-05T02:46:40;21.70;;;14.10;;
12886;SDS011;6511;49.746;6.094;2023-03-05T02:49:06;21.85;;;12.98;;
12886;SDS011;6511;49.746;6.094;2023-03-05T02:51:31;22.60;;;13.60;;
12886;SDS011;6511;49.746;6.094;2023-03-05T02:53:57;21.87;;;14.27;;
12886;SDS011;6511;49.746;6.094;2023-03-05T02:56:22;23.45;;;13.80;;
12886;SDS011;6511;49.746;6.094;2023-03-05T02:58:48;25.30;;;14.57;;
12886;SDS011;6511;49.746;6.094;2023-03-05T03:01:13;20.47;;;13.63;;
12886;SDS011;6511;49.746;6.094;2023-03-05T03:03:39;22.48;;;14.60;;
12886;SDS011;6511;49.746;6.094;2023-03-05T03:06:05;23.90;;;14.33;;
12886;SDS011;6511;49.746;6.094;2023-03-05T03:08:31;23.02;;;14.63;;
12886;SDS011;6511;49.746;6.094;2023-03-05T03:11:02;24.37;;;14.80;;
12886;SDS011;6511;49.746;6.094;2023-03-05T03:13:32;21.70;;;14.40;;
12886;SDS011;6511;49.746;6.094;2023-03-05T03:16:05;21.03;;;14.23;;
12886;SDS011;6511;49.746;6.094;2023-03-05T03:18:32;22.53;;;14.70;;
12886;SDS011;6511;49.746;6.094;2023-03-05T03:20:58;23.48;;;14.52;;
12886;SDS011;6511;49.746;6.094;2023-03-05T03:23:23;25.03;;;14.97;;
12886;SDS011;6511;49.746;6.094;2023-03-05T03:25:49;23.08;;;14.30;;
12886;SDS011;6511;49.746;6.094;2023-03-05T03:28:15;23.83;;;15.13;;
12886;SDS011;6511;49.746;6.094;2023-03-05T03:30:40;21.90;;;13.80;;
12886;SDS011;6511;49.746;6.094;2023-03-05T03:33:06;24.90;;;14.20;;
12886;SDS011;6511;49.746;6.094;2023-03-05T03:35:32;26.73;;;13.80;;
12886;SDS011;6511;49.746;6.094;2023-03-05T03:37:57;22.50;;;13.60;;
12886;SDS011;6511;49.746;6.094;2023-03-05T03:40:23;22.27;;;13.80;;
12886;SDS011;6511;49.746;6.094;2023-03-05T03:42:52;20.20;;;13.45;;
12886;SDS011;6511;49.746;6.094;2023-03-05T03:45:18;20.50;;;12.65;;
12886;SDS011;6511;49.746;6.094;2023-03-05T03:47:46;19.77;;;13.38;;
12886;SDS011;6511;49.746;6.094;2023-03-05T03:50:13;21.63;;;13.50;;
12886;SDS011;6511;49.746;6.094;2023-03-05T03:52:38;21.58;;;13.40;;
12886;SDS011;6511;49.746;6.094;2023-03-05T03:55:04;18.77;;;12.17;;
12886;SDS011;6511;49.746;6.094;2023-03-05T03:57:30;19.13;;;11.48;;
12886;SDS011;6511;49.746;6.094;2023-03-05T03:59:57;18.27;;;11.43;;
12886;SDS011;6511;49.746;6.094;2023-03-05T04:02:23;16.15;;;10.48;;
12886;SDS011;6511;49.746;6.094;2023-03-05T04:04:50;18.08;;;11.02;;
12886;SDS011;6511;49.746;6.094;2023-03-05T04:07:15;17.75;;;10.15;;
12886;SDS011;6511;49.746;6.094;2023-03-05T04:09:42;16.25;;;10.73;;
12886;SDS011;6511;49.746;6.094;2023-03-05T04:12:07;16.77;;;10.70;;
12886;SDS011;6511;49.746;6.094;2023-03-05T04:14:33;18.25;;;11.00;;
12886;SDS011;6511;49.746;6.094;2023-03-05T04:16:59;16.05;;;10.70;;
12886;SDS011;6511;49.746;6.094;2023-03-05T04:19:25;16.93;;;11.17;;
12886;SDS011;6511;49.746;6.094;2023-03-05T04:21:52;17.85;;;11.35;;
12886;SDS011;6511;49.746;6.094;2023-03-05T04:24:17;18.07;;;11.07;;
12886;SDS011;6511;49.746;6.094;2023-03-05T04:26:43;16.50;;;10.70;;
12886;SDS011;6511;49.746;6.094;2023-03-05T04:29:15;16.83;;;10.13;;
12886;SDS011;6511;49.746;6.094;2023-03-05T04:31:40;16.25;;;10.40;;
12886;SDS011;6511;49.746;6.094;2023-03-05T04:34:06;16.90;;;9.70;;
12886;SDS011;6511;49.746;6.094;2023-03-05T04:36:31;14.57;;;9.67;;
12886;SDS011;6511;49.746;6.094;2023-03-05T04:38:57;16.50;;;9.20;;
12886;SDS011;6511;49.746;6.094;2023-03-05T04:41:22;15.63;;;9.97;;
12886;SDS011;6511;49.746;6.094;2023-03-05T04:43:48;15.55;;;9.35;;
12886;SDS011;6511;49.746;6.094;2023-03-05T04:46:14;13.98;;;8.55;;
12886;SDS011;6511;49.746;6.094;2023-03-05T04:48:39;13.87;;;8.77;;
12886;SDS011;6511;49.746;6.094;2023-03-05T04:51:05;12.70;;;8.75;;
12886;SDS011;6511;49.746;6.094;2023-03-05T04:53:31;12.82;;;8.52;;
12886;SDS011;6511;49.746;6.094;2023-03-05T04:55:57;14.32;;;8.70;;
12886;SDS011;6511;49.746;6.094;2023-03-05T04:58:25;12.52;;;8.40;;
12886;SDS011;6511;49.746;6.094;2023-03-05T05:00:51;12.85;;;8.23;;
12886;SDS011;6511;49.746;6.094;2023-03-05T05:03:17;13.27;;;8.45;;
12886;SDS011;6511;49.746;6.094;2023-03-05T05:05:43;13.60;;;8.07;;
12886;SDS011;6511;49.746;6.094;2023-03-05T05:08:09;14.27;;;8.63;;
12886;SDS011;6511;49.746;6.094;2023-03-05T05:10:35;14.63;;;8.57;;
12886;SDS011;6511;49.746;6.094;2023-03-05T05:13:03;14.40;;;8.27;;
12886;SDS011;6511;49.746;6.094;2023-03-05T05:15:29;12.93;;;7.95;;
12886;SDS011;6511;49.746;6.094;2023-03-05T05:17:56;13.83;;;8.90;;
12886;SDS011;6511;49.746;6.094;2023-03-05T05:20:22;14.98;;;8.75;;
12886;SDS011;6511;49.746;6.094;2023-03-05T05:22:47;13.77;;;8.18;;
12886;SDS011;6511;49.746;6.094;2023-03-05T05:25:13;13.77;;;8.30;;
12886;SDS011;6511;49.746;6.094;2023-03-05T05:27:39;14.17;;;8.70;;
12886;SDS011;6511;49.746;6.094;2023-03-05T05:30:05;13.40;;;8.23;;
12886;SDS011;6511;49.746;6.094;2023-03-05T05:32:31;14.15;;;8.55;;
12886;SDS011;6511;49.746;6.094;2023-03-05T05:34:57;13.80;;;8.60;;
12886;SDS011;6511;49.746;6.094;2023-03-05T05:37:24;13.95;;;8.43;;
12886;SDS011;6511;49.746;6.094;2023-03-05T05:39:50;16.40;;;9.45;;
12886;SDS011;6511;49.746;6.094;2023-03-05T05:42:20;13.45;;;8.32;;
12886;SDS011;6511;49.746;6.094;2023-03-05T05:44:47;13.32;;;9.07;;
12886;SDS011;6511;49.746;6.094;2023-03-05T05:47:13;13.95;;;8.50;;
12886;SDS011;6511;49.746;6.094;2023-03-05T05:49:40;14.57;;;8.52;;
12886;SDS011;6511;49.746;6.094;2023-03-05T05:52:05;12.83;;;8.17;;
12886;SDS011;6511;49.746;6.094;2023-03-05T05:54:31;12.93;;;8.02;;
12886;SDS011;6511;49.746;6.094;2023-03-05T05:56:57;11.87;;;8.47;;
12886;SDS011;6511;49.746;6.094;2023-03-05T05:59:22;13.93;;;8.83;;
12886;SDS011;6511;49.746;6.094;2023-03-05T06:01:48;14.10;;;8.13;;
12886;SDS011;6511;49.746;6.094;2023-03-05T06:04:14;13.23;;;8.20;;
12886;SDS011;6511;49.746;6.094;2023-03-05T06:06:39;12.70;;;8.25;;
12886;SDS011;6511;49.746;6.094;2023-03-05T06:09:05;15.20;;;9.03;;
12886;SDS011;6511;49.746;6.094;2023-03-05T06:11:31;13.25;;;8.82;;
12886;SDS011;6511;49.746;6.094;2023-03-05T06:13:58;15.95;;;8.90;;
12886;SDS011;6511;49.746;6.094;2023-03-05T06:16:26;13.53;;;8.63;;
12886;SDS011;6511;49.746;6.094;2023-03-05T06:18:54;15.02;;;9.18;;
12886;SDS011;6511;49.746;6.094;2023-03-05T06:21:20;13.87;;;9.17;;
12886;SDS011;6511;49.746;6.094;2023-03-05T06:23:46;14.32;;;9.30;;
12886;SDS011;6511;49.746;6.094;2023-03-05T06:26:14;16.30;;;9.57;;
12886;SDS011;6511;49.746;6.094;2023-03-05T06:28:42;14.02;;;8.90;;
12886;SDS011;6511;49.746;6.094;2023-03-05T06:31:15;15.00;;;9.07;;
12886;SDS011;6511;49.746;6.094;2023-03-05T06:33:43;14.23;;;9.18;;
12886;SDS011;6511;49.746;6.094;2023-03-05T06:36:13;13.85;;;9.20;;
12886;SDS011;6511;49.746;6.094;2023-03-05T06:38:40;13.30;;;9.15;;
12886;SDS011;6511;49.746;6.094;2023-03-05T06:41:08;14.48;;;9.23;;
12886;SDS011;6511;49.746;6.094;2023-03-05T06:43:36;11.93;;;8.75;;
12886;SDS011;6511;49.746;6.094;2023-03-05T06:46:04;13.87;;;8.70;;
12886;SDS011;6511;49.746;6.094;2023-03-05T06:48:32;17.70;;;9.30;;
12886;SDS011;6511;49.746;6.094;2023-03-05T06:50:58;14.40;;;8.70;;
12886;SDS011;6511;49.746;6.094;2023-03-05T06:53:24;15.03;;;9.13;;
12886;SDS011;6511;49.746;6.094;2023-03-05T06:55:51;15.17;;;9.07;;
12886;SDS011;6511;49.746;6.094;2023-03-05T06:58:17;14.00;;;9.18;;
12886;SDS011;6511;49.746;6.094;2023-03-05T07:00:43;13.77;;;8.63;;
12886;SDS011;6511;49.746;6.094;2023-03-05T07:03:09;12.70;;;8.63;;
12886;SDS011;6511;49.746;6.094;2023-03-05T07:05:39;14.60;;;8.85;;
12886;SDS011;6511;49.746;6.094;2023-03-05T07:08:08;13.87;;;8.97;;
12886;SDS011;6511;49.746;6.094;2023-03-05T07:10:37;15.70;;;9.32;;
12886;SDS011;6511;49.746;6.094;2023-03-05T07:13:04;14.85;;;8.93;;
12886;SDS011;6511;49.746;6.094;2023-03-05T07:15:30;14.00;;;8.50;;
12886;SDS011;6511;49.746;6.094;2023-03-05T07:17:55;14.73;;;8.73;;
12886;SDS011;6511;49.746;6.094;2023-03-05T07:20:21;15.30;;;9.00;;
12886;SDS011;6511;49.746;6.094;2023-03-05T07:22:46;14.47;;;8.70;;
12886;SDS011;6511;49.746;6.094;2023-03-05T07:25:12;11.70;;;8.43;;
12886;SDS011;6511;49.746;6.094;2023-03-05T07:27:38;13.93;;;8.90;;
12886;SDS011;6511;49.746;6.094;2023-03-05T07:30:04;14.20;;;8.93;;
12886;SDS011;6511;49.746;6.094;2023-03-05T07:32:30;15.40;;;9.17;;
12886;SDS011;6511;49.746;6.094;2023-03-05T07:34:56;14.18;;;8.55;;
12886;SDS011;6511;49.746;6.094;2023-03-05T07:37:22;15.25;;;9.43;;
12886;SDS011;6511;49.746;6.094;2023-03-05T07:39:47;14.87;;;8.93;;
12886;SDS011;6511;49.746;6.094;2023-03-05T07:42:13;13.75;;;8.88;;
12886;SDS011;6511;49.746;6.094;2023-03-05T07:44:38;13.70;;;9.13;;
12886;SDS011;6511;49.746;6.094;2023-03-05T07:47:04;16.10;;;8.80;;
12886;SDS011;6511;49.746;6.094;2023-03-05T07:49:30;14.23;;;9.10;;
12886;SDS011;6511;49.746;6.094;2023-03-05T07:51:55;14.53;;;9.07;;
12886;SDS011;6511;49.746;6.094;2023-03-05T07:54:21;13.07;;;8.73;;
12886;SDS011;6511;49.746;6.094;2023-03-05T07:56:46;12.95;;;9.10;;
12886;SDS011;6511;49.746;6.094;2023-03-05T07:59:12;13.15;;;8.75;;
12886;SDS011;6511;49.746;6.094;2023-03-05T08:01:38;14.40;;;9.05;;
12886;SDS011;6511;49.746;6.094;2023-03-05T08:04:05;10.60;;;7.47;;
12886;SDS011;6511;49.746;6.094;2023-03-05T08:06:32;11.02;;;7.40;;
12886;SDS011;6511;49.746;6.094;2023-03-05T08:08:57;11.20;;;7.47;;
12886;SDS011;6511;49.746;6.094;2023-03-05T08:11:24;9.40;;;7.25;;
12886;SDS011;6511;49.746;6.094;2023-03-05T08:13:49;12.40;;;7.37;;
12886;SDS011;6511;49.746;6.094;2023-03-05T08:16:19;12.75;;;7.53;;
12886;SDS011;6511;49.746;6.094;2023-03-05T08:18:45;8.90;;;6.63;;
12886;SDS011;6511;49.746;6.094;2023-03-05T08:21:20;8.98;;;6.45;;
12886;SDS011;6511;49.746;6.094;2023-03-05T08:23:54;11.15;;;6.50;;
12886;SDS011;6511;49.746;6.094;2023-03-05T08:26:23;8.95;;;6.15;;
12886;SDS011;6511;49.746;6.094;2023-03-05T08:28:50;9.43;;;6.38;;
12886;SDS011;6511;49.746;6.094;2023-03-05T08:31:17;7.97;;;5.95;;
12886;SDS011;6511;49.746;6.094;2023-03-05T08:33:45;9.18;;;5.90;;
12886;SDS011;6511;49.746;6.094;2023-03-05T08:36:12;8.13;;;6.05;;
12886;SDS011;6511;49.746;6.094;2023-03-05T08:38:38;8.50;;;6.07;;
12886;SDS011;6511;49.746;6.094;2023-03-05T08:41:04;8.43;;;5.68;;
12886;SDS011;6511;49.746;6.094;2023-03-05T08:43:30;6.53;;;5.33;;
12886;SDS011;6511;49.746;6.094;2023-03-05T08:45:56;9.02;;;5.40;;
12886;SDS011;6511;49.746;6.094;2023-03-05T08:48:23;8.20;;;5.22;;
12886;SDS011;6511;49.746;6.094;2023-03-05T08:50:48;8.90;;;5.40;;
12886;SDS011;6511;49.746;6.094;2023-03-05T08:53:14;6.60;;;5.10;;
12886;SDS011;6511;49.746;6.094;2023-03-05T08:55:40;8.63;;;5.40;;
12886;SDS011;6511;49.746;6.094;2023-03-05T08:58:05;7.28;;;4.88;;
12886;SDS011;6511;49.746;6.094;2023-03-05T09:00:31;8.43;;;4.87;;
12886;SDS011;6511;49.746;6.094;2023-03-05T09:02:57;6.60;;;4.53;;
12886;SDS011;6511;49.746;6.094;2023-03-05T09:05:22;6.43;;;4.40;;
12886;SDS011;6511;49.746;6.094;2023-03-05T09:07:48;7.87;;;4.90;;
12886;SDS011;6511;49.746;6.094;2023-03-05T09:10:13;7.97;;;4.80;;
12886;SDS011;6511;49.746;6.094;2023-03-05T09:12:40;6.60;;;4.63;;
12886;SDS011;6511;49.746;6.094;2023-03-05T09:15:06;7.20;;;4.50;;
12886;SDS011;6511;49.746;6.094;2023-03-05T09:17:34;6.90;;;4.73;;
12886;SDS011;6511;49.746;6.094;2023-03-05T09:20:00;6.18;;;4.60;;
12886;SDS011;6511;49.746;6.094;2023-03-05T09:22:27;6.18;;;4.60;;
12886;SDS011;6511;49.746;6.094;2023-03-05T09:24:53;6.68;;;4.57;;
12886;SDS011;6511;49.746;6.094;2023-03-05T09:27:18;5.88;;;4.50;;
12886;SDS011;6511;49.746;6.094;2023-03-05T09:29:44;7.03;;;4.47;;
12886;SDS011;6511;49.746;6.094;2023-03-05T09:32:09;7.10;;;4.80;;
12886;SDS011;6511;49.746;6.094;2023-03-05T09:34:35;8.07;;;4.63;;
12886;SDS011;6511;49.746;6.094;2023-03-05T09:37:01;7.73;;;4.80;;
12886;SDS011;6511;49.746;6.094;2023-03-05T09:39:27;7.30;;;4.80;;
12886;SDS011;6511;49.746;6.094;2023-03-05T09:46:54;7.05;;;4.50;;
12886;SDS011;6511;49.746;6.094;2023-03-05T09:52:20;6.70;;;3.73;;
12886;SDS011;6511;49.746;6.094;2023-03-05T09:54:48;4.93;;;3.30;;
12886;SDS011;6511;49.746;6.094;2023-03-05T09:57:19;3.83;;;2.95;;
12886;SDS011;6511;49.746;6.094;2023-03-05T09:59:53;5.75;;;3.38;;
12886;SDS011;6511;49.746;6.094;2023-03-05T10:02:25;3.92;;;3.03;;
12886;SDS011;6511;49.746;6.094;2023-03-05T10:04:59;3.50;;;2.50;;
12886;SDS011;6511;49.746;6.094;2023-03-05T10:07:44;3.60;;;2.70;;
12886;SDS011;6511;49.746;6.094;2023-03-05T10:10:25;5.43;;;3.20;;
12886;SDS011;6511;49.746;6.094;2023-03-05T10:12:56;5.03;;;2.77;;
12886;SDS011;6511;49.746;6.094;2023-03-05T10:15:39;3.70;;;2.60;;
12886;SDS011;6511;49.746;6.094;2023-03-05T10:18:21;5.50;;;2.53;;
12886;SDS011;6511;49.746;6.094;2023-03-05T10:21:30;6.57;;;4.35;;
12886;SDS011;6511;49.746;6.094;2023-03-05T10:26:56;4.60;;;2.10;;
12886;SDS011;6511;49.746;6.094;2023-03-05T10:40:46;2.97;;;1.80;;
12886;SDS011;6511;49.746;6.094;2023-03-05T10:46:03;2.83;;;1.80;;
12886;SDS011;6511;49.746;6.094;2023-03-05T10:54:42;0.85;;;0.68;;
12886;SDS011;6511;49.746;6.094;2023-03-05T10:59:28;1.10;;;0.80;;
12886;SDS011;6511;49.746;6.094;2023-03-05T11:02:00;1.67;;;0.80;;
12886;SDS011;6511;49.746;6.094;2023-03-05T11:04:29;2.78;;;0.90;;
12886;SDS011;6511;49.746;6.094;2023-03-05T11:07:04;2.05;;;1.42;;
12886;SDS011;6511;49.746;6.094;2023-03-05T11:12:32;2.42;;;1.08;;
12886;SDS011;6511;49.746;6.094;2023-03-05T11:15:17;2.13;;;1.15;;
12886;SDS011;6511;49.746;6.094;2023-03-05T11:17:47;2.00;;;1.20;;
12886;SDS011;6511;49.746;6.094;2023-03-05T11:20:33;1.50;;;1.10;;
12886;SDS011;6511;49.746;6.094;2023-03-05T11:28:18;3.78;;;1.33;;
12886;SDS011;6511;49.746;6.094;2023-03-05T11:30:53;2.30;;;1.30;;
12886;SDS011;6511;49.746;6.094;2023-03-05T11:33:24;1.95;;;1.30;;
12886;SDS011;6511;49.746;6.094;2023-03-05T11:35:52;2.38;;;1.25;;
12886;SDS011;6511;49.746;6.094;2023-03-05T11:38:38;1.63;;;1.20;;
12886;SDS011;6511;49.746;6.094;2023-03-05T11:41:10;2.63;;;1.30;;
12886;SDS011;6511;49.746;6.094;2023-03-05T11:43:35;1.48;;;1.00;;
12886;SDS011;6511;49.746;6.094;2023-03-05T11:46:05;1.48;;;1.08;;
12886;SDS011;6511;49.746;6.094;2023-03-05T11:48:40;1.60;;;0.90;;
12886;SDS011;6511;49.746;6.094;2023-03-05T11:51:31;1.75;;;1.08;;
12886;SDS011;6511;49.746;6.094;2023-03-05T11:54:02;3.03;;;1.00;;
12886;SDS011;6511;49.746;6.094;2023-03-05T11:56:33;1.17;;;0.95;;
12886;SDS011;6511;49.746;6.094;2023-03-05T12:01:42;1.10;;;0.95;;
12886;SDS011;6511;49.746;6.094;2023-03-05T12:04:11;2.30;;;1.00;;
12886;SDS011;6511;49.746;6.094;2023-03-05T12:06:38;1.90;;;1.00;;
12886;SDS011;6511;49.746;6.094;2023-03-05T12:09:22;2.60;;;1.00;;
12886;SDS011;6511;49.746;6.094;2023-03-05T12:12:08;1.35;;;1.00;;
12886;SDS011;6511;49.746;6.094;2023-03-05T12:15:02;1.60;;;1.10;;
12886;SDS011;6511;49.746;6.094;2023-03-05T12:17:38;1.70;;;0.93;;
12886;SDS011;6511;49.746;6.094;2023-03-05T12:22:42;1.55;;;1.08;;
12886;SDS011;6511;49.746;6.094;2023-03-05T12:25:31;1.25;;;0.88;;
12886;SDS011;6511;49.746;6.094;2023-03-05T12:27:57;1.30;;;1.00;;
12886;SDS011;6511;49.746;6.094;2023-03-05T12:32:58;1.63;;;1.02;;
12886;SDS011;6511;49.746;6.094;2023-03-05T12:38:04;2.83;;;1.20;;
12886;SDS011;6511;49.746;6.094;2023-03-05T12:40:51;1.60;;;1.10;;
12886;SDS011;6511;49.746;6.094;2023-03-05T12:43:28;1.33;;;1.20;;
12886;SDS011;6511;49.746;6.094;2023-03-05T12:46:20;1.80;;;1.20;;
12886;SDS011;6511;49.746;6.094;2023-03-05T12:48:50;2.50;;;1.30;;
12886;SDS011;6511;49.746;6.094;2023-03-05T12:56:51;2.43;;;1.30;;
12886;SDS011;6511;49.746;6.094;2023-03-05T12:59:18;1.38;;;1.27;;
12886;SDS011;6511;49.746;6.094;2023-03-05T13:01:57;2.20;;;1.58;;
12886;SDS011;6511;49.746;6.094;2023-03-05T13:04:28;1.60;;;1.40;;
12886;SDS011;6511;49.746;6.094;2023-03-05T13:07:00;1.90;;;1.50;;
12886;SDS011;6511;49.746;6.094;2023-03-05T13:09:31;2.92;;;2.03;;
12886;SDS011;6511;49.746;6.094;2023-03-05T13:12:00;3.85;;;2.80;;
12886;SDS011;6511;49.746;6.094;2023-03-05T13:14:28;1.90;;;1.60;;
12886;SDS011;6511;49.746;6.094;2023-03-05T13:16:58;1.67;;;1.38;;
12886;SDS011;6511;49.746;6.094;2023-03-05T13:19:24;2.00;;;1.60;;
12886;SDS011;6511;49.746;6.094;2023-03-05T13:22:00;1.95;;;1.60;;
12886;SDS011;6511;49.746;6.094;2023-03-05T13:24:28;3.30;;;1.80;;
12886;SDS011;6511;49.746;6.094;2023-03-05T13:26:54;3.28;;;2.10;;
12886;SDS011;6511;49.746;6.094;2023-03-05T13:29:21;2.00;;;1.80;;
12886;SDS011;6511;49.746;6.094;2023-03-05T13:34:29;2.60;;;1.85;;
12886;SDS011;6511;49.746;6.094;2023-03-05T13:37:14;2.70;;;1.90;;
12886;SDS011;6511;49.746;6.094;2023-03-05T13:39:54;2.95;;;1.88;;
12886;SDS011;6511;49.746;6.094;2023-03-05T13:42:29;2.90;;;1.75;;
12886;SDS011;6511;49.746;6.094;2023-03-05T13:44:59;2.60;;;1.90;;
12886;SDS011;6511;49.746;6.094;2023-03-05T13:47:30;2.30;;;1.80;;
12886;SDS011;6511;49.746;6.094;2023-03-05T13:49:58;2.73;;;1.73;;
12886;SDS011;6511;49.746;6.094;2023-03-05T13:52:31;2.35;;;1.70;;
12886;SDS011;6511;49.746;6.094;2023-03-05T13:54:59;2.55;;;1.80;;
12886;SDS011;6511;49.746;6.094;2023-03-05T14:03:21;2.58;;;1.90;;
12886;SDS011;6511;49.746;6.094;2023-03-05T14:05:51;2.30;;;2.10;;
12886;SDS011;6511;49.746;6.094;2023-03-05T14:08:19;2.70;;;2.40;;
12886;SDS011;6511;49.746;6.094;2023-03-05T14:10:47;3.40;;;2.27;;
12886;SDS011;6511;49.746;6.094;2023-03-05T14:13:20;3.10;;;2.30;;
12886;SDS011;6511;49.746;6.094;2023-03-05T14:16:04;2.72;;;2.20;;
12886;SDS011;6511;49.746;6.094;2023-03-05T14:18:34;3.30;;;2.50;;
12886;SDS011;6511;49.746;6.094;2023-03-05T14:23:44;2.70;;;2.40;;
12886;SDS011;6511;49.746;6.094;2023-03-05T14:26:33;2.90;;;2.60;;
12886;SDS011;6511;49.746;6.094;2023-03-05T14:36:49;3.50;;;2.72;;
12886;SDS011;6511;49.746;6.094;2023-03-05T14:39:38;4.20;;;2.80;;
12886;SDS011;6511;49.746;6.094;2023-03-05T14:44:49;4.20;;;2.83;;
12886;SDS011;6511;49.746;6.094;2023-03-05T14:47:15;3.80;;;2.70;;
12886;SDS011;6511;49.746;6.094;2023-03-05T14:49:41;5.03;;;2.80;;
12886;SDS011;6511;49.746;6.094;2023-03-05T14:52:08;3.63;;;2.80;;
12886;SDS011;6511;49.746;6.094;2023-03-05T14:54:38;4.30;;;2.67;;
12886;SDS011;6511;49.746;6.094;2023-03-05T14:57:04;4.00;;;2.50;;
12886;SDS011;6511;49.746;6.094;2023-03-05T14:59:30;3.05;;;2.60;;
12886;SDS011;6511;49.746;6.094;2023-03-05T15:01:56;3.07;;;2.77;;
12886;SDS011;6511;49.746;6.094;2023-03-05T15:04:21;3.10;;;2.77;;
12886;SDS011;6511;49.746;6.094;2023-03-05T15:06:47;4.40;;;2.90;;
12886;SDS011;6511;49.746;6.094;2023-03-05T15:09:15;4.18;;;2.95;;
12886;SDS011;6511;49.746;6.094;2023-03-05T15:11:45;3.45;;;2.78;;
12886;SDS011;6511;49.746;6.094;2023-03-05T15:14:11;3.17;;;2.70;;
12886;SDS011;6511;49.746;6.094;2023-03-05T15:16:38;20.97;;;11.23;;
12886;SDS011;6511;49.746;6.094;2023-03-05T15:19:10;3.53;;;2.83;;
12886;SDS011;6511;49.746;6.094;2023-03-05T15:21:37;4.18;;;2.95;;
12886;SDS011;6511;49.746;6.094;2023-03-05T15:24:02;3.37;;;2.53;;
12886;SDS011;6511;49.746;6.094;2023-03-05T15:26:28;4.60;;;2.85;;
12886;SDS011;6511;49.746;6.094;2023-03-05T15:28:54;3.67;;;2.43;;
12886;SDS011;6511;49.746;6.094;2023-03-05T15:31:19;2.87;;;2.50;;
12886;SDS011;6511;49.746;6.094;2023-03-05T15:33:45;4.80;;;3.70;;
12886;SDS011;6511;49.746;6.094;2023-03-05T15:36:10;3.47;;;3.08;;
12886;SDS011;6511;49.746;6.094;2023-03-05T15:38:37;3.00;;;2.70;;
12886;SDS011;6511;49.746;6.094;2023-03-05T15:41:05;4.05;;;3.38;;
12886;SDS011;6511;49.746;6.094;2023-03-05T15:43:31;3.70;;;2.80;;
12886;SDS011;6511;49.746;6.094;2023-03-05T15:45:56;4.13;;;2.70;;
12886;SDS011;6511;49.746;6.094;2023-03-05T15:48:22;3.47;;;3.00;;
12886;SDS011;6511;49.746;6.094;2023-03-05T15:50:48;4.13;;;2.93;;
12886;SDS011;6511;49.746;6.094;2023-03-05T15:53:13;4.03;;;2.92;;
12886;SDS011;6511;49.746;6.094;2023-03-05T15:55:40;3.45;;;3.03;;
12886;SDS011;6511;49.746;6.094;2023-03-05T15:58:07;3.55;;;3.00;;
12886;SDS011;6511;49.746;6.094;2023-03-05T16:00:34;3.85;;;3.00;;
12886;SDS011;6511;49.746;6.094;2023-03-05T16:03:01;3.92;;;3.05;;
12886;SDS011;6511;49.746;6.094;2023-03-05T16:05:27;3.90;;;3.13;;
12886;SDS011;6511;49.746;6.094;2023-03-05T16:07:53;3.30;;;2.97;;
12886;SDS011;6511;49.746;6.094;2023-03-05T16:10:23;4.45;;;3.30;;
12886;SDS011;6511;49.746;6.094;2023-03-05T16:12:52;3.72;;;3.28;;
12886;SDS011;6511;49.746;6.094;2023-03-05T16:15:26;5.23;;;3.30;;
12886;SDS011;6511;49.746;6.094;2023-03-05T16:17:52;4.45;;;3.58;;
12886;SDS011;6511;49.746;6.094;2023-03-05T16:20:20;5.93;;;3.60;;